Sapporo, Japan

12:06 PM JST on September 19, 2014 (GMT +0900)
New Chitose | Change Station
CLOSE
Current Station
Airport
Location: Chitose AB,
Elevation: 98 ft
Nearby Weather Stations

Elev 98 ft 42.77 °N, 141.69 °E | Updated 6 minutes ago

Partly Cloudy
Partly Cloudy
64 °F
Feels Like 64 °F
N
17
Wind Variable Wind from NNW

Today
High -- | Low -- °F
--% Chance of Precip.
Yesterday
High -- | Low -- °F
Precip. -- in
5:17 AM 5:38 PM
Waning Crescent, 22% visible
Pressure 29.71 in
Visibility 6.2 miles
Clouds Few 1500 ft
Few 2500 ft
Dew Point 50 °F
Humidity 59%
Rainfall 0.00 in
Snow Depth Not available.
UV 6 out of 12
Pollen Not available.
Air Quality Not available.
Flu Activity Not available.
METAR RJCC 190300Z 34015KT 9999 FEW015 FEW025CB 18/10 Q1006

More Conditions Fewer Conditions

Pressure 29.71 in
Visibility 6.2 miles
Clouds Few 1500 ft
Few 2500 ft
Dew Point 50 °F
Humidity 59%
Rainfall 0.00 in
Snow Depth Not available.
UV 6 out of 12
Pollen Not available.
Air Quality Not available.
Flu Activity Not available.
METAR RJCC 190300Z 34015KT 9999 FEW015 FEW025CB 18/10 Q1006

More Conditions Fewer Conditions

10-Day Weather Forecast

Almanac

Astronomy

Sep. 19, 2014 Rise Set
Actual Time 5:17 AM JST 5:38 PM JST
Civil Twilight 4:49 AM JST 6:06 PM JST
Nautical Twilight 4:15 AM JST 6:40 PM JST
Astronomical Twilight 3:41 AM JST 7:14 PM JST
Moon 12:22 AM JST 2:48 PM JST
Length of Visible Light 13h 17m
Length of Day
12h 20m
Tomorrow will be 2m 55s shorter.
Waning Crescent, 22% of the Moon is Illuminated
Sep 18
Waning Crescent
Sep 24
New
Oct 1
First Quarter
Oct 8
Full
Oct 15
Last Quarter

Yesterday's Extremes

Country Highs Country Lows

Community

WunderPhotos

Upload Photos

1,754,550 photos uploaded!

Nearby

Snow Depth

Not available.

Earthquake Activity

City Distance Mag. Time & Date
No recent earthquake activity has been reported nearby.
Minimum magnitude displayed is 2.5.

Coastal Water Temperatures

Place Temperature
No Stations Reporting

Nearby Weather Stations